sensor_id;sensor_type;location;lat;lon;timestamp;P1;durP1;ratioP1;P2;durP2;ratioP2
64157;SDS011;50449;51.528;5.076;2023-04-03T00:01:28;26.13;;;18.38;;
64157;SDS011;50449;51.528;5.076;2023-04-03T00:03:54;17.73;;;16.73;;
64157;SDS011;50449;51.528;5.076;2023-04-03T00:06:20;19.98;;;18.67;;
64157;SDS011;50449;51.528;5.076;2023-04-03T00:08:46;19.73;;;18.63;;
64157;SDS011;50449;51.528;5.076;2023-04-03T00:11:12;18.92;;;17.83;;
64157;SDS011;50449;51.528;5.076;2023-04-03T00:13:38;18.48;;;17.35;;
64157;SDS011;50449;51.528;5.076;2023-04-03T00:16:04;18.48;;;17.48;;
64157;SDS011;50449;51.528;5.076;2023-04-03T00:18:30;22.08;;;20.08;;
64157;SDS011;50449;51.528;5.076;2023-04-03T00:20:56;19.00;;;17.42;;
64157;SDS011;50449;51.528;5.076;2023-04-03T00:23:22;19.77;;;18.25;;
64157;SDS011;50449;51.528;5.076;2023-04-03T00:25:48;18.67;;;17.63;;
64157;SDS011;50449;51.528;5.076;2023-04-03T00:28:14;19.52;;;18.10;;
64157;SDS011;50449;51.528;5.076;2023-04-03T00:30:40;21.27;;;19.83;;
64157;SDS011;50449;51.528;5.076;2023-04-03T00:33:05;20.63;;;19.05;;
64157;SDS011;50449;51.528;5.076;2023-04-03T00:35:31;19.33;;;18.08;;
64157;SDS011;50449;51.528;5.076;2023-04-03T00:37:57;18.30;;;17.20;;
64157;SDS011;50449;51.528;5.076;2023-04-03T00:40:24;19.20;;;18.08;;
64157;SDS011;50449;51.528;5.076;2023-04-03T00:42:54;18.45;;;17.35;;
64157;SDS011;50449;51.528;5.076;2023-04-03T00:45:35;18.73;;;17.50;;
64157;SDS011;50449;51.528;5.076;2023-04-03T00:48:03;18.73;;;17.50;;
64157;SDS011;50449;51.528;5.076;2023-04-03T00:50:31;19.17;;;18.00;;
64157;SDS011;50449;51.528;5.076;2023-04-03T00:53:00;17.95;;;16.85;;
64157;SDS011;50449;51.528;5.076;2023-04-03T00:55:26;19.38;;;17.80;;
64157;SDS011;50449;51.528;5.076;2023-04-03T00:57:52;18.00;;;17.00;;
64157;SDS011;50449;51.528;5.076;2023-04-03T01:00:20;19.00;;;17.77;;
64157;SDS011;50449;51.528;5.076;2023-04-03T01:02:48;19.15;;;18.15;;
64157;SDS011;50449;51.528;5.076;2023-04-03T01:05:13;19.33;;;18.08;;
64157;SDS011;50449;51.528;5.076;2023-04-03T01:07:41;19.17;;;18.08;;
64157;SDS011;50449;51.528;5.076;2023-04-03T01:10:08;18.83;;;17.73;;
64157;SDS011;50449;51.528;5.076;2023-04-03T01:12:39;19.83;;;18.33;;
64157;SDS011;50449;51.528;5.076;2023-04-03T01:15:07;18.42;;;16.83;;
64157;SDS011;50449;51.528;5.076;2023-04-03T01:20:17;18.90;;;17.60;;
64157;SDS011;50449;51.528;5.076;2023-04-03T01:22:59;18.55;;;17.45;;
64157;SDS011;50449;51.528;5.076;2023-04-03T01:25:32;17.73;;;16.63;;
64157;SDS011;50449;51.528;5.076;2023-04-03T01:27:59;16.92;;;15.95;;
64157;SDS011;50449;51.528;5.076;2023-04-03T01:30:27;18.38;;;17.17;;
64157;SDS011;50449;51.528;5.076;2023-04-03T01:32:57;19.10;;;18.00;;
64157;SDS011;50449;51.528;5.076;2023-04-03T01:35:23;18.00;;;16.77;;
64157;SDS011;50449;51.528;5.076;2023-04-03T01:37:48;17.85;;;16.33;;
64157;SDS011;50449;51.528;5.076;2023-04-03T01:40:14;17.83;;;16.83;;
64157;SDS011;50449;51.528;5.076;2023-04-03T01:42:39;18.08;;;16.88;;
64157;SDS011;50449;51.528;5.076;2023-04-03T01:45:04;17.45;;;16.55;;
64157;SDS011;50449;51.528;5.076;2023-04-03T01:47:30;17.90;;;16.83;;
64157;SDS011;50449;51.528;5.076;2023-04-03T01:49:56;18.27;;;16.95;;
64157;SDS011;50449;51.528;5.076;2023-04-03T01:52:21;19.00;;;17.90;;
64157;SDS011;50449;51.528;5.076;2023-04-03T01:54:47;18.30;;;17.35;;
64157;SDS011;50449;51.528;5.076;2023-04-03T01:57:12;17.98;;;16.98;;
64157;SDS011;50449;51.528;5.076;2023-04-03T01:59:39;18.70;;;17.48;;
64157;SDS011;50449;51.528;5.076;2023-04-03T02:02:05;17.52;;;16.58;;
64157;SDS011;50449;51.528;5.076;2023-04-03T02:04:30;17.77;;;16.63;;
64157;SDS011;50449;51.528;5.076;2023-04-03T02:06:56;16.83;;;15.93;;
64157;SDS011;50449;51.528;5.076;2023-04-03T02:09:21;17.73;;;16.75;;
64157;SDS011;50449;51.528;5.076;2023-04-03T02:11:47;18.70;;;17.45;;
64157;SDS011;50449;51.528;5.076;2023-04-03T02:14:12;18.88;;;17.58;;
64157;SDS011;50449;51.528;5.076;2023-04-03T02:16:37;18.55;;;17.27;;
64157;SDS011;50449;51.528;5.076;2023-04-03T02:19:03;17.33;;;16.33;;
64157;SDS011;50449;51.528;5.076;2023-04-03T02:21:28;17.15;;;16.15;;
64157;SDS011;50449;51.528;5.076;2023-04-03T02:23:54;17.25;;;16.35;;
64157;SDS011;50449;51.528;5.076;2023-04-03T02:26:19;17.10;;;15.98;;
64157;SDS011;50449;51.528;5.076;2023-04-03T02:28:46;18.77;;;17.58;;
64157;SDS011;50449;51.528;5.076;2023-04-03T02:31:11;18.13;;;17.02;;
64157;SDS011;50449;51.528;5.076;2023-04-03T02:33:36;19.13;;;17.67;;
64157;SDS011;50449;51.528;5.076;2023-04-03T02:36:03;17.45;;;16.45;;
64157;SDS011;50449;51.528;5.076;2023-04-03T02:38:30;17.38;;;16.38;;
64157;SDS011;50449;51.528;5.076;2023-04-03T02:41:09;18.08;;;16.95;;
64157;SDS011;50449;51.528;5.076;2023-04-03T02:43:35;17.98;;;16.83;;
64157;SDS011;50449;51.528;5.076;2023-04-03T02:46:01;17.02;;;15.85;;
64157;SDS011;50449;51.528;5.076;2023-04-03T02:48:27;16.38;;;15.48;;
64157;SDS011;50449;51.528;5.076;2023-04-03T02:50:53;16.48;;;15.57;;
64157;SDS011;50449;51.528;5.076;2023-04-03T02:53:19;18.20;;;17.20;;
64157;SDS011;50449;51.528;5.076;2023-04-03T02:55:44;18.15;;;16.85;;
64157;SDS011;50449;51.528;5.076;2023-04-03T02:58:10;17.25;;;16.15;;
64157;SDS011;50449;51.528;5.076;2023-04-03T03:00:36;17.75;;;16.60;;
64157;SDS011;50449;51.528;5.076;2023-04-03T03:03:02;16.40;;;15.50;;
64157;SDS011;50449;51.528;5.076;2023-04-03T03:05:27;16.25;;;15.35;;
64157;SDS011;50449;51.528;5.076;2023-04-03T03:07:53;16.27;;;15.38;;
64157;SDS011;50449;51.528;5.076;2023-04-03T03:10:19;16.90;;;15.90;;
64157;SDS011;50449;51.528;5.076;2023-04-03T03:12:45;20.20;;;18.80;;
64157;SDS011;50449;51.528;5.076;2023-04-03T03:15:10;17.67;;;16.67;;
64157;SDS011;50449;51.528;5.076;2023-04-03T03:17:36;16.70;;;15.68;;
64157;SDS011;50449;51.528;5.076;2023-04-03T03:20:02;16.95;;;16.00;;
64157;SDS011;50449;51.528;5.076;2023-04-03T03:22:28;15.77;;;14.90;;
64157;SDS011;50449;51.528;5.076;2023-04-03T03:24:54;17.42;;;16.38;;
64157;SDS011;50449;51.528;5.076;2023-04-03T03:27:20;18.02;;;16.92;;
64157;SDS011;50449;51.528;5.076;2023-04-03T03:29:45;18.67;;;17.58;;
64157;SDS011;50449;51.528;5.076;2023-04-03T03:32:11;17.67;;;16.73;;
64157;SDS011;50449;51.528;5.076;2023-04-03T03:34:36;17.58;;;16.42;;
64157;SDS011;50449;51.528;5.076;2023-04-03T03:37:02;16.95;;;15.35;;
64157;SDS011;50449;51.528;5.076;2023-04-03T03:39:28;18.17;;;17.08;;
64157;SDS011;50449;51.528;5.076;2023-04-03T03:41:53;17.88;;;16.67;;
64157;SDS011;50449;51.528;5.076;2023-04-03T03:44:19;14.98;;;14.18;;
64157;SDS011;50449;51.528;5.076;2023-04-03T03:46:45;17.05;;;15.95;;
64157;SDS011;50449;51.528;5.076;2023-04-03T03:49:10;16.05;;;15.07;;
64157;SDS011;50449;51.528;5.076;2023-04-03T03:51:36;18.55;;;14.95;;
64157;SDS011;50449;51.528;5.076;2023-04-03T03:54:02;15.90;;;14.90;;
64157;SDS011;50449;51.528;5.076;2023-04-03T03:56:28;16.58;;;15.68;;
64157;SDS011;50449;51.528;5.076;2023-04-03T03:58:54;17.75;;;16.58;;
64157;SDS011;50449;51.528;5.076;2023-04-03T04:01:21;15.90;;;15.00;;
64157;SDS011;50449;51.528;5.076;2023-04-03T04:03:47;19.02;;;17.70;;
64157;SDS011;50449;51.528;5.076;2023-04-03T04:06:13;15.93;;;15.07;;
64157;SDS011;50449;51.528;5.076;2023-04-03T04:08:38;17.35;;;16.35;;
64157;SDS011;50449;51.528;5.076;2023-04-03T04:11:04;15.02;;;14.23;;
64157;SDS011;50449;51.528;5.076;2023-04-03T04:13:30;16.38;;;15.48;;
64157;SDS011;50449;51.528;5.076;2023-04-03T04:15:55;17.85;;;16.75;;
64157;SDS011;50449;51.528;5.076;2023-04-03T04:18:21;16.52;;;15.43;;
64157;SDS011;50449;51.528;5.076;2023-04-03T04:20:47;17.02;;;16.00;;
64157;SDS011;50449;51.528;5.076;2023-04-03T04:23:13;16.00;;;14.55;;
64157;SDS011;50449;51.528;5.076;2023-04-03T04:25:39;16.02;;;15.02;;
64157;SDS011;50449;51.528;5.076;2023-04-03T04:28:05;14.88;;;14.07;;
64157;SDS011;50449;51.528;5.076;2023-04-03T04:30:30;15.40;;;14.50;;
64157;SDS011;50449;51.528;5.076;2023-04-03T04:32:55;16.90;;;15.82;;
64157;SDS011;50449;51.528;5.076;2023-04-03T04:35:21;15.52;;;14.68;;
64157;SDS011;50449;51.528;5.076;2023-04-03T04:37:46;17.80;;;16.70;;
64157;SDS011;50449;51.528;5.076;2023-04-03T04:40:12;17.38;;;16.33;;
64157;SDS011;50449;51.528;5.076;2023-04-03T04:42:37;16.77;;;15.88;;
64157;SDS011;50449;51.528;5.076;2023-04-03T04:45:02;15.20;;;14.40;;
64157;SDS011;50449;51.528;5.076;2023-04-03T04:47:28;17.02;;;16.10;;
64157;SDS011;50449;51.528;5.076;2023-04-03T04:49:54;17.65;;;16.55;;
64157;SDS011;50449;51.528;5.076;2023-04-03T04:52:20;15.90;;;15.00;;
64157;SDS011;50449;51.528;5.076;2023-04-03T04:54:45;17.70;;;16.63;;
64157;SDS011;50449;51.528;5.076;2023-04-03T04:57:11;15.55;;;14.65;;
64157;SDS011;50449;51.528;5.076;2023-04-03T04:59:36;16.60;;;15.63;;
64157;SDS011;50449;51.528;5.076;2023-04-03T05:02:02;15.65;;;14.65;;
64157;SDS011;50449;51.528;5.076;2023-04-03T05:04:27;15.73;;;14.90;;
64157;SDS011;50449;51.528;5.076;2023-04-03T05:06:53;18.08;;;16.98;;
64157;SDS011;50449;51.528;5.076;2023-04-03T05:09:18;15.63;;;14.50;;
64157;SDS011;50449;51.528;5.076;2023-04-03T05:11:45;16.13;;;15.23;;
64157;SDS011;50449;51.528;5.076;2023-04-03T05:14:10;15.65;;;14.75;;
64157;SDS011;50449;51.528;5.076;2023-04-03T05:16:36;15.70;;;14.80;;
64157;SDS011;50449;51.528;5.076;2023-04-03T05:19:01;17.02;;;15.93;;
64157;SDS011;50449;51.528;5.076;2023-04-03T05:21:27;16.13;;;15.20;;
64157;SDS011;50449;51.528;5.076;2023-04-03T05:23:56;17.35;;;16.10;;
64157;SDS011;50449;51.528;5.076;2023-04-03T05:26:22;14.13;;;13.32;;
64157;SDS011;50449;51.528;5.076;2023-04-03T05:28:47;16.00;;;14.88;;
64157;SDS011;50449;51.528;5.076;2023-04-03T05:31:13;15.40;;;14.50;;
64157;SDS011;50449;51.528;5.076;2023-04-03T05:33:38;15.80;;;15.00;;
64157;SDS011;50449;51.528;5.076;2023-04-03T05:36:04;16.20;;;15.20;;
64157;SDS011;50449;51.528;5.076;2023-04-03T05:38:30;15.65;;;14.60;;
64157;SDS011;50449;51.528;5.076;2023-04-03T05:40:55;17.60;;;16.45;;
64157;SDS011;50449;51.528;5.076;2023-04-03T05:43:21;16.13;;;15.07;;
64157;SDS011;50449;51.528;5.076;2023-04-03T05:45:47;15.73;;;14.82;;
64157;SDS011;50449;51.528;5.076;2023-04-03T05:48:12;16.30;;;15.30;;
64157;SDS011;50449;51.528;5.076;2023-04-03T05:50:38;15.65;;;14.75;;
64157;SDS011;50449;51.528;5.076;2023-04-03T05:53:06;16.50;;;15.50;;
64157;SDS011;50449;51.528;5.076;2023-04-03T05:55:35;14.70;;;13.80;;
64157;SDS011;50449;51.528;5.076;2023-04-03T05:58:01;15.93;;;14.93;;
64157;SDS011;50449;51.528;5.076;2023-04-03T06:00:26;15.68;;;14.80;;
64157;SDS011;50449;51.528;5.076;2023-04-03T06:02:52;15.68;;;14.73;;
64157;SDS011;50449;51.528;5.076;2023-04-03T06:05:18;16.10;;;14.90;;
64157;SDS011;50449;51.528;5.076;2023-04-03T06:07:43;15.10;;;14.30;;
64157;SDS011;50449;51.528;5.076;2023-04-03T06:10:10;15.73;;;14.82;;
64157;SDS011;50449;51.528;5.076;2023-04-03T06:12:37;16.65;;;15.38;;
64157;SDS011;50449;51.528;5.076;2023-04-03T06:15:03;15.50;;;14.50;;
64157;SDS011;50449;51.528;5.076;2023-04-03T06:17:28;14.57;;;13.68;;
64157;SDS011;50449;51.528;5.076;2023-04-03T06:19:54;18.13;;;16.85;;
64157;SDS011;50449;51.528;5.076;2023-04-03T06:22:20;14.60;;;13.80;;
64157;SDS011;50449;51.528;5.076;2023-04-03T06:24:46;15.65;;;14.65;;
64157;SDS011;50449;51.528;5.076;2023-04-03T06:27:11;15.10;;;14.20;;
64157;SDS011;50449;51.528;5.076;2023-04-03T06:29:37;15.80;;;14.32;;
64157;SDS011;50449;51.528;5.076;2023-04-03T06:32:02;16.27;;;15.13;;
64157;SDS011;50449;51.528;5.076;2023-04-03T06:34:28;15.38;;;14.27;;
64157;SDS011;50449;51.528;5.076;2023-04-03T06:36:53;16.42;;;15.25;;
64157;SDS011;50449;51.528;5.076;2023-04-03T06:39:19;16.00;;;14.90;;
64157;SDS011;50449;51.528;5.076;2023-04-03T06:41:47;16.13;;;15.13;;
64157;SDS011;50449;51.528;5.076;2023-04-03T06:44:13;14.85;;;13.93;;
64157;SDS011;50449;51.528;5.076;2023-04-03T06:46:40;15.68;;;14.52;;
64157;SDS011;50449;51.528;5.076;2023-04-03T06:49:07;17.77;;;15.93;;
64157;SDS011;50449;51.528;5.076;2023-04-03T06:51:33;16.48;;;15.25;;
64157;SDS011;50449;51.528;5.076;2023-04-03T06:54:00;15.65;;;14.65;;
64157;SDS011;50449;51.528;5.076;2023-04-03T06:56:26;14.77;;;13.88;;
64157;SDS011;50449;51.528;5.076;2023-04-03T06:58:53;16.23;;;15.05;;
64157;SDS011;50449;51.528;5.076;2023-04-03T07:01:20;15.07;;;14.15;;
64157;SDS011;50449;51.528;5.076;2023-04-03T07:03:46;15.48;;;14.55;;
64157;SDS011;50449;51.528;5.076;2023-04-03T07:06:13;16.33;;;15.10;;
64157;SDS011;50449;51.528;5.076;2023-04-03T07:08:40;14.38;;;13.27;;
64157;SDS011;50449;51.528;5.076;2023-04-03T07:11:05;17.85;;;16.17;;
64157;SDS011;50449;51.528;5.076;2023-04-03T07:13:31;15.73;;;14.75;;
64157;SDS011;50449;51.528;5.076;2023-04-03T07:15:57;14.90;;;13.93;;
64157;SDS011;50449;51.528;5.076;2023-04-03T07:18:23;14.40;;;13.50;;
64157;SDS011;50449;51.528;5.076;2023-04-03T07:20:48;14.98;;;14.07;;
64157;SDS011;50449;51.528;5.076;2023-04-03T07:23:14;15.77;;;14.77;;
64157;SDS011;50449;51.528;5.076;2023-04-03T07:25:49;15.27;;;14.35;;
64157;SDS011;50449;51.528;5.076;2023-04-03T07:28:16;14.45;;;13.55;;
64157;SDS011;50449;51.528;5.076;2023-04-03T07:30:46;15.50;;;14.50;;
64157;SDS011;50449;51.528;5.076;2023-04-03T07:33:14;17.50;;;16.25;;
64157;SDS011;50449;51.528;5.076;2023-04-03T07:35:41;14.20;;;13.35;;
64157;SDS011;50449;51.528;5.076;2023-04-03T07:38:07;15.43;;;14.25;;
64157;SDS011;50449;51.528;5.076;2023-04-03T07:40:33;15.95;;;14.85;;
64157;SDS011;50449;51.528;5.076;2023-04-03T07:42:58;15.25;;;14.20;;
64157;SDS011;50449;51.528;5.076;2023-04-03T07:45:24;15.68;;;14.73;;
64157;SDS011;50449;51.528;5.076;2023-04-03T07:47:50;14.82;;;13.82;;
64157;SDS011;50449;51.528;5.076;2023-04-03T07:50:16;16.90;;;15.57;;
64157;SDS011;50449;51.528;5.076;2023-04-03T07:52:42;13.85;;;13.05;;
64157;SDS011;50449;51.528;5.076;2023-04-03T07:55:07;16.20;;;14.95;;
64157;SDS011;50449;51.528;5.076;2023-04-03T07:57:33;15.10;;;14.07;;
64157;SDS011;50449;51.528;5.076;2023-04-03T07:59:59;15.50;;;14.52;;
64157;SDS011;50449;51.528;5.076;2023-04-03T08:02:24;14.88;;;13.88;;
64157;SDS011;50449;51.528;5.076;2023-04-03T08:04:50;16.25;;;15.25;;
64157;SDS011;50449;51.528;5.076;2023-04-03T08:07:16;17.33;;;16.05;;
64157;SDS011;50449;51.528;5.076;2023-04-03T08:09:41;14.75;;;13.85;;
64157;SDS011;50449;51.528;5.076;2023-04-03T08:12:07;16.00;;;14.75;;
64157;SDS011;50449;51.528;5.076;2023-04-03T08:14:32;16.85;;;15.65;;
64157;SDS011;50449;51.528;5.076;2023-04-03T08:16:59;14.23;;;13.43;;
64157;SDS011;50449;51.528;5.076;2023-04-03T08:19:25;16.05;;;14.95;;
64157;SDS011;50449;51.528;5.076;2023-04-03T08:21:51;15.77;;;14.45;;
64157;SDS011;50449;51.528;5.076;2023-04-03T08:24:20;16.67;;;15.52;;
64157;SDS011;50449;51.528;5.076;2023-04-03T08:26:45;14.48;;;13.60;;
64157;SDS011;50449;51.528;5.076;2023-04-03T08:29:11;16.05;;;15.05;;
64157;SDS011;50449;51.528;5.076;2023-04-03T08:31:36;15.30;;;14.40;;
64157;SDS011;50449;51.528;5.076;2023-04-03T08:34:02;16.30;;;15.23;;
64157;SDS011;50449;51.528;5.076;2023-04-03T08:36:28;16.90;;;15.80;;
64157;SDS011;50449;51.528;5.076;2023-04-03T08:38:55;15.63;;;14.40;;
64157;SDS011;50449;51.528;5.076;2023-04-03T08:46:42;16.02;;;14.98;;
64157;SDS011;50449;51.528;5.076;2023-04-03T08:49:12;17.13;;;15.95;;
64157;SDS011;50449;51.528;5.076;2023-04-03T08:51:48;15.43;;;14.57;;
64157;SDS011;50449;51.528;5.076;2023-04-03T08:54:37;17.88;;;16.55;;
64157;SDS011;50449;51.528;5.076;2023-04-03T08:57:15;16.17;;;15.07;;
64157;SDS011;50449;51.528;5.076;2023-04-03T08:59:44;15.60;;;14.30;;
64157;SDS011;50449;51.528;5.076;2023-04-03T09:02:23;17.15;;;15.68;;
64157;SDS011;50449;51.528;5.076;2023-04-03T09:04:53;14.18;;;13.38;;
64157;SDS011;50449;51.528;5.076;2023-04-03T09:07:22;17.10;;;15.90;;
64157;SDS011;50449;51.528;5.076;2023-04-03T09:09:56;16.45;;;15.20;;
64157;SDS011;50449;51.528;5.076;2023-04-03T09:12:27;17.55;;;16.35;;
64157;SDS011;50449;51.528;5.076;2023-04-03T09:20:11;16.35;;;15.32;;
64157;SDS011;50449;51.528;5.076;2023-04-03T09:25:53;14.82;;;14.02;;
64157;SDS011;50449;51.528;5.076;2023-04-03T09:28:25;18.13;;;16.75;;
64157;SDS011;50449;51.528;5.076;2023-04-03T09:30:52;14.75;;;13.93;;
64157;SDS011;50449;51.528;5.076;2023-04-03T09:33:18;16.90;;;15.82;;
64157;SDS011;50449;51.528;5.076;2023-04-03T09:35:46;16.87;;;15.63;;
64157;SDS011;50449;51.528;5.076;2023-04-03T09:40:39;14.88;;;14.07;;
64157;SDS011;50449;51.528;5.076;2023-04-03T09:45:52;15.23;;;14.38;;
64157;SDS011;50449;51.528;5.076;2023-04-03T09:48:19;17.30;;;15.65;;
64157;SDS011;50449;51.528;5.076;2023-04-03T09:50:54;15.70;;;14.80;;
64157;SDS011;50449;51.528;5.076;2023-04-03T09:53:33;16.73;;;15.67;;
64157;SDS011;50449;51.528;5.076;2023-04-03T09:56:26;17.40;;;16.10;;
64157;SDS011;50449;51.528;5.076;2023-04-03T10:01:32;17.67;;;16.58;;
64157;SDS011;50449;51.528;5.076;2023-04-03T10:04:06;16.05;;;15.15;;
64157;SDS011;50449;51.528;5.076;2023-04-03T10:06:58;16.05;;;15.15;;
64157;SDS011;50449;51.528;5.076;2023-04-03T10:09:24;17.80;;;16.60;;
64157;SDS011;50449;51.528;5.076;2023-04-03T10:14:30;17.52;;;16.42;;
64157;SDS011;50449;51.528;5.076;2023-04-03T10:25:01;15.73;;;14.70;;
64157;SDS011;50449;51.528;5.076;2023-04-03T10:27:47;18.00;;;16.92;;
64157;SDS011;50449;51.528;5.076;2023-04-03T10:52:47;15.55;;;14.73;;
64157;SDS011;50449;51.528;5.076;2023-04-03T10:57:50;15.50;;;14.50;;
64157;SDS011;50449;51.528;5.076;2023-04-03T11:00:22;17.08;;;16.05;;
64157;SDS011;50449;51.528;5.076;2023-04-03T11:03:03;14.98;;;14.18;;
64157;SDS011;50449;51.528;5.076;2023-04-03T11:05:47;16.40;;;15.40;;
64157;SDS011;50449;51.528;5.076;2023-04-03T11:08:24;16.90;;;16.00;;
64157;SDS011;50449;51.528;5.076;2023-04-03T11:10:56;18.08;;;16.88;;
64157;SDS011;50449;51.528;5.076;2023-04-03T11:13:46;17.02;;;16.02;;
64157;SDS011;50449;51.528;5.076;2023-04-03T11:16:19;17.65;;;16.65;;
64157;SDS011;50449;51.528;5.076;2023-04-03T11:18:51;16.95;;;15.95;;
64157;SDS011;50449;51.528;5.076;2023-04-03T11:21:20;16.20;;;15.25;;
64157;SDS011;50449;51.528;5.076;2023-04-03T11:23:52;16.60;;;15.60;;
64157;SDS011;50449;51.528;5.076;2023-04-03T11:26:24;16.85;;;15.82;;
64157;SDS011;50449;51.528;5.076;2023-04-03T11:29:05;17.45;;;16.40;;
64157;SDS011;50449;51.528;5.076;2023-04-03T11:34:34;18.70;;;17.50;;
64157;SDS011;50449;51.528;5.076;2023-04-03T11:37:04;16.30;;;15.40;;
64157;SDS011;50449;51.528;5.076;2023-04-03T11:39:38;18.88;;;17.58;;
64157;SDS011;50449;51.528;5.076;2023-04-03T11:42:24;17.88;;;16.95;;
64157;SDS011;50449;51.528;5.076;2023-04-03T11:53:09;18.48;;;17.27;;
64157;SDS011;50449;51.528;5.076;2023-04-03T12:01:44;18.48;;;17.33;;
64157;SDS011;50449;51.528;5.076;2023-04-03T12:04:10;17.05;;;16.15;;
64157;SDS011;50449;51.528;5.076;2023-04-03T12:09:21;18.52;;;17.48;;
64157;SDS011;50449;51.528;5.076;2023-04-03T12:11:47;17.23;;;16.23;;
64157;SDS011;50449;51.528;5.076;2023-04-03T12:14:16;17.25;;;16.25;;
64157;SDS011;50449;51.528;5.076;2023-04-03T12:16:43;20.13;;;18.83;;
64157;SDS011;50449;51.528;5.076;2023-04-03T12:24:28;16.90;;;16.00;;
64157;SDS011;50449;51.528;5.076;2023-04-03T12:41:15;19.13;;;18.02;;
64157;SDS011;50449;51.528;5.076;2023-04-03T12:46:39;19.80;;;18.65;;
64157;SDS011;50449;51.528;5.076;2023-04-03T12:49:43;17.23;;;16.33;;
64157;SDS011;50449;51.528;5.076;2023-04-03T12:52:16;17.45;;;16.52;;
64157;SDS011;50449;51.528;5.076;2023-04-03T12:54:43;18.83;;;17.73;;
64157;SDS011;50449;51.528;5.076;2023-04-03T12:59:40;18.52;;;17.42;;
64157;SDS011;50449;51.528;5.076;2023-04-03T13:04:46;19.15;;;18.00;;
64157;SDS011;50449;51.528;5.076;2023-04-03T13:07:25;19.42;;;18.42;;
64157;SDS011;50449;51.528;5.076;2023-04-03T13:09:59;19.30;;;18.20;;
64157;SDS011;50449;51.528;5.076;2023-04-03T13:12:28;18.98;;;17.95;;
64157;SDS011;50449;51.528;5.076;2023-04-03T13:14:57;20.23;;;18.90;;
64157;SDS011;50449;51.528;5.076;2023-04-03T13:17:25;19.73;;;18.63;;
64157;SDS011;50449;51.528;5.076;2023-04-03T13:19:53;21.75;;;20.45;;
64157;SDS011;50449;51.528;5.076;2023-04-03T13:22:26;21.38;;;20.20;;
64157;SDS011;50449;51.528;5.076;2023-04-03T13:25:04;19.17;;;18.17;;
64157;SDS011;50449;51.528;5.076;2023-04-03T13:27:32;22.45;;;21.02;;
64157;SDS011;50449;51.528;5.076;2023-04-03T13:29:59;21.05;;;19.80;;
64157;SDS011;50449;51.528;5.076;2023-04-03T13:32:26;19.27;;;18.27;;
64157;SDS011;50449;51.528;5.076;2023-04-03T13:34:53;19.67;;;18.58;;
64157;SDS011;50449;51.528;5.076;2023-04-03T13:37:24;20.55;;;19.35;;
64157;SDS011;50449;51.528;5.076;2023-04-03T13:43:14;20.73;;;19.48;;
64157;SDS011;50449;51.528;5.076;2023-04-03T13:48:51;20.08;;;18.98;;
64157;SDS011;50449;51.528;5.076;2023-04-03T13:51:21;20.40;;;19.30;;
64157;SDS011;50449;51.528;5.076;2023-04-03T13:53:56;20.77;;;19.60;;
64157;SDS011;50449;51.528;5.076;2023-04-03T13:56:32;21.10;;;19.80;;
64157;SDS011;50449;51.528;5.076;2023-04-03T14:04:17;20.92;;;19.73;;
64157;SDS011;50449;51.528;5.076;2023-04-03T14:06:52;22.48;;;21.08;;
64157;SDS011;50449;51.528;5.076;2023-04-03T14:09:19;20.67;;;19.50;;
64157;SDS011;50449;51.528;5.076;2023-04-03T14:11:48;23.17;;;21.80;;
64157;SDS011;50449;51.528;5.076;2023-04-03T14:14:17;23.08;;;21.77;;
64157;SDS011;50449;51.528;5.076;2023-04-03T14:16:47;24.52;;;23.13;;
64157;SDS011;50449;51.528;5.076;2023-04-03T14:19:25;21.67;;;20.58;;
64157;SDS011;50449;51.528;5.076;2023-04-03T14:21:53;22.42;;;20.90;;
64157;SDS011;50449;51.528;5.076;2023-04-03T14:24:20;21.70;;;20.50;;
64157;SDS011;50449;51.528;5.076;2023-04-03T14:26:47;23.65;;;22.30;;
64157;SDS011;50449;51.528;5.076;2023-04-03T14:29:13;22.52;;;21.33;;
64157;SDS011;50449;51.528;5.076;2023-04-03T14:31:40;23.00;;;21.67;;
64157;SDS011;50449;51.528;5.076;2023-04-03T14:34:08;21.87;;;20.63;;
64157;SDS011;50449;51.528;5.076;2023-04-03T14:36:38;21.98;;;20.77;;
64157;SDS011;50449;51.528;5.076;2023-04-03T14:39:06;25.95;;;24.17;;
64157;SDS011;50449;51.528;5.076;2023-04-03T14:41:32;24.23;;;22.77;;
64157;SDS011;50449;51.528;5.076;2023-04-03T14:43:58;24.10;;;22.52;;
64157;SDS011;50449;51.528;5.076;2023-04-03T14:46:33;23.10;;;21.80;;
64157;SDS011;50449;51.528;5.076;2023-04-03T14:49:01;23.67;;;22.27;;
64157;SDS011;50449;51.528;5.076;2023-04-03T14:51:27;22.75;;;21.55;;
64157;SDS011;50449;51.528;5.076;2023-04-03T14:53:53;23.42;;;22.05;;
64157;SDS011;50449;51.528;5.076;2023-04-03T14:56:26;21.02;;;19.92;;
64157;SDS011;50449;51.528;5.076;2023-04-03T14:58:55;24.35;;;22.90;;
64157;SDS011;50449;51.528;5.076;2023-04-03T15:01:22;23.52;;;22.23;;
64157;SDS011;50449;51.528;5.076;2023-04-03T15:03:48;24.02;;;22.52;;
64157;SDS011;50449;51.528;5.076;2023-04-03T15:06:14;23.30;;;22.02;;
64157;SDS011;50449;51.528;5.076;2023-04-03T15:08:40;23.77;;;22.50;;
64157;SDS011;50449;51.528;5.076;2023-04-03T15:11:07;25.27;;;23.88;;
64157;SDS011;50449;51.528;5.076;2023-04-03T15:13:34;24.83;;;23.33;;
64157;SDS011;50449;51.528;5.076;2023-04-03T15:16:00;23.67;;;22.38;;
64157;SDS011;50449;51.528;5.076;2023-04-03T15:18:26;24.20;;;22.90;;
64157;SDS011;50449;51.528;5.076;2023-04-03T15:20:53;24.67;;;23.17;;
64157;SDS011;50449;51.528;5.076;2023-04-03T15:23:19;24.25;;;22.98;;
64157;SDS011;50449;51.528;5.076;2023-04-03T15:25:46;25.23;;;23.67;;
64157;SDS011;50449;51.528;5.076;2023-04-03T15:28:18;24.27;;;22.97;;
64157;SDS011;50449;51.528;5.076;2023-04-03T15:30:47;24.80;;;23.33;;
64157;SDS011;50449;51.528;5.076;2023-04-03T15:33:12;24.45;;;23.02;;
64157;SDS011;50449;51.528;5.076;2023-04-03T15:35:40;25.20;;;23.67;;
64157;SDS011;50449;51.528;5.076;2023-04-03T15:38:06;25.70;;;24.30;;
64157;SDS011;50449;51.528;5.076;2023-04-03T15:40:31;23.42;;;22.17;;
64157;SDS011;50449;51.528;5.076;2023-04-03T15:42:57;24.88;;;23.42;;
64157;SDS011;50449;51.528;5.076;2023-04-03T15:45:22;22.90;;;21.67;;
64157;SDS011;50449;51.528;5.076;2023-04-03T15:47:48;25.95;;;24.15;;
64157;SDS011;50449;51.528;5.076;2023-04-03T15:50:13;22.08;;;20.77;;
64157;SDS011;50449;51.528;5.076;2023-04-03T15:52:39;22.83;;;21.63;;
64157;SDS011;50449;51.528;5.076;2023-04-03T15:55:04;22.88;;;21.67;;
64157;SDS011;50449;51.528;5.076;2023-04-03T15:57:31;24.38;;;22.98;;
64157;SDS011;50449;51.528;5.076;2023-04-03T15:59:56;25.95;;;24.33;;
64157;SDS011;50449;51.528;5.076;2023-04-03T16:02:22;23.80;;;22.60;;
64157;SDS011;50449;51.528;5.076;2023-04-03T16:04:48;23.98;;;22.35;;
64157;SDS011;50449;51.528;5.076;2023-04-03T16:07:14;23.50;;;22.25;;
64157;SDS011;50449;51.528;5.076;2023-04-03T16:09:39;24.33;;;22.83;;
64157;SDS011;50449;51.528;5.076;2023-04-03T16:12:05;22.52;;;21.33;;
64157;SDS011;50449;51.528;5.076;2023-04-03T16:14:30;23.55;;;22.02;;
64157;SDS011;50449;51.528;5.076;2023-04-03T16:16:57;24.77;;;23.33;;
64157;SDS011;50449;51.528;5.076;2023-04-03T16:19:23;22.65;;;21.45;;
64157;SDS011;50449;51.528;5.076;2023-04-03T16:21:49;24.98;;;23.48;;
64157;SDS011;50449;51.528;5.076;2023-04-03T16:24:15;22.50;;;21.20;;